createdAt,value
2022-12-01T00:06:17.834Z,42.60
2022-12-01T00:16:25.205Z,42.50
2022-12-01T00:26:34.546Z,42.30
2022-12-01T00:36:44.204Z,42.30
2022-12-01T00:46:53.459Z,42.20
2022-12-01T00:57:00.559Z,42.10
2022-12-01T01:07:09.283Z,41.80
2022-12-01T01:17:16.777Z,41.60
2022-12-01T01:27:25.947Z,41.30
2022-12-01T01:37:32.990Z,41.30
2022-12-01T01:47:43.866Z,41.30
2022-12-01T01:57:50.872Z,41.10
2022-12-01T02:08:01.644Z,40.80
2022-12-01T02:18:23.286Z,40.60
2022-12-01T02:28:51.455Z,40.50
2022-12-01T02:39:06.745Z,40.40
2022-12-01T02:49:20.610Z,40.00
2022-12-01T02:59:29.352Z,40.10
2022-12-01T03:09:44.192Z,40.00
2022-12-01T03:19:56.525Z,39.70
2022-12-01T03:30:11.323Z,39.60
2022-12-01T03:40:23.884Z,39.30
2022-12-01T03:50:41.037Z,39.40
2022-12-01T04:00:54.374Z,39.20
2022-12-01T04:11:45.607Z,39.00
2022-12-01T04:21:56.900Z,39.10
2022-12-01T04:32:04.583Z,39.00
2022-12-01T04:42:14.155Z,38.70
2022-12-01T04:52:21.406Z,38.50
2022-12-01T05:02:30.336Z,38.80
2022-12-01T05:12:38.310Z,38.50
2022-12-01T05:23:05.016Z,38.50
2022-12-01T05:33:13.577Z,37.90
2022-12-01T05:43:27.169Z,38.10
2022-12-01T05:53:36.046Z,37.70
2022-12-01T06:03:45.189Z,37.80
2022-12-01T06:13:52.506Z,37.90
2022-12-01T06:24:01.235Z,37.70
2022-12-01T06:34:08.915Z,37.70
2022-12-01T06:44:17.703Z,37.30
2022-12-01T06:54:25.180Z,37.50
2022-12-01T07:04:34.001Z,37.50
2022-12-01T07:14:43.331Z,37.30
2022-12-01T07:24:52.105Z,37.10
2022-12-01T07:34:59.853Z,37.20
2022-12-01T07:45:09.041Z,36.90
2022-12-01T07:55:16.080Z,36.90
2022-12-01T08:05:24.908Z,36.90
2022-12-01T08:15:32.233Z,36.40
2022-12-01T08:25:40.935Z,36.60
2022-12-01T08:35:48.633Z,36.70
2022-12-01T08:45:59.855Z,36.60
2022-12-01T08:56:09.986Z,36.20
2022-12-01T09:06:21.139Z,36.20
2022-12-01T09:16:28.379Z,36.40
2022-12-01T09:26:37.637Z,36.10
2022-12-01T09:36:45.190Z,36.30
2022-12-01T09:46:59.355Z,36.10
2022-12-01T09:57:06.728Z,36.10
2022-12-01T10:07:22.486Z,36.10
2022-12-01T10:17:42.364Z,35.90
2022-12-01T10:28:03.526Z,36.20
2022-12-01T10:38:16.583Z,36.10
2022-12-01T10:48:26.666Z,35.90
2022-12-01T10:58:36.593Z,36.00
2022-12-01T11:08:50.138Z,35.90
2022-12-01T11:19:11.903Z,35.70
2022-12-01T11:29:36.912Z,35.60
2022-12-01T11:39:48.570Z,35.80
2022-12-01T11:50:02.141Z,35.50
2022-12-01T12:00:17.053Z,35.60
2022-12-01T12:10:40.228Z,35.40
2022-12-01T12:21:01.526Z,35.40
2022-12-01T12:31:19.602Z,35.30
2022-12-01T12:41:35.902Z,35.50
2022-12-01T12:51:49.166Z,35.40
2022-12-01T13:02:02.469Z,35.00
2022-12-01T13:12:16.843Z,35.30
2022-12-01T13:22:27.753Z,35.20
2022-12-01T13:32:39.395Z,35.20
2022-12-01T13:42:55.490Z,35.00
2022-12-01T13:53:15.113Z,35.10
2022-12-01T14:03:43.537Z,34.90
2022-12-01T14:13:57.856Z,34.70
2022-12-01T14:24:06.979Z,34.70
2022-12-01T14:34:19.515Z,34.80
2022-12-01T14:44:32.355Z,34.50
2022-12-01T14:54:48.318Z,34.80
2022-12-01T15:05:14.531Z,34.50
2022-12-01T15:15:25.564Z,35.00
2022-12-01T15:25:37.227Z,34.90
2022-12-01T15:35:48.024Z,34.70
2022-12-01T15:46:00.819Z,35.00
2022-12-01T15:56:12.225Z,34.90
2022-12-01T16:06:20.194Z,34.90
2022-12-01T16:16:43.051Z,34.50
2022-12-01T16:26:56.032Z,34.80
2022-12-01T16:37:04.663Z,35.20
2022-12-01T16:47:19.739Z,34.60
2022-12-01T16:57:28.377Z,34.50
2022-12-01T17:07:35.700Z,34.60
2022-12-01T17:17:44.504Z,34.40
2022-12-01T17:27:51.783Z,34.50
2022-12-01T17:38:00.650Z,34.40
2022-12-01T17:48:08.855Z,34.10
2022-12-01T17:58:19.122Z,34.10
2022-12-01T18:08:27.405Z,34.00
2022-12-01T18:18:36.193Z,34.10
2022-12-01T18:28:43.207Z,34.00
2022-12-01T18:38:52.648Z,34.00
2022-12-01T18:49:03.260Z,33.90
2022-12-01T18:59:14.548Z,34.70
2022-12-01T19:09:22.991Z,34.00
2022-12-01T19:19:37.102Z,34.10
2022-12-01T19:29:45.072Z,33.80
2022-12-01T19:39:54.830Z,34.00
2022-12-01T19:50:02.359Z,33.80
2022-12-01T20:00:12.666Z,33.60
2022-12-01T20:10:21.453Z,33.70
2022-12-01T20:20:30.194Z,33.50
2022-12-01T20:30:41.837Z,33.50
2022-12-01T20:40:54.161Z,33.50
2022-12-01T20:51:04.302Z,33.30
2022-12-01T21:01:15.161Z,33.50
2022-12-01T21:11:46.116Z,33.20
2022-12-01T21:21:54.838Z,33.20
2022-12-01T21:32:06.003Z,33.30
2022-12-01T21:42:20.584Z,33.20
2022-12-01T21:52:33.941Z,33.10
2022-12-01T22:02:52.918Z,33.10
2022-12-01T22:13:00.276Z,33.10
2022-12-01T22:23:15.594Z,33.00
2022-12-01T22:33:26.325Z,33.10
2022-12-01T22:43:52.509Z,33.10
2022-12-01T22:54:10.849Z,32.90
2022-12-01T23:04:29.002Z,33.00
2022-12-01T23:14:37.214Z,33.00
2022-12-01T23:24:46.371Z,32.80
2022-12-01T23:34:58.466Z,33.00
2022-12-01T23:45:14.511Z,33.10
2022-12-01T23:55:25.801Z,33.10
